createdAt,value
2022-10-18T00:00:17.404Z,96818.72
2022-10-18T00:02:15.782Z,96816.38
2022-10-18T00:04:14.189Z,96816.69
2022-10-18T00:06:12.517Z,96806.53
2022-10-18T00:08:10.785Z,96816.50
2022-10-18T00:10:11.445Z,96813.88
2022-10-18T00:12:09.560Z,96806.03
2022-10-18T00:14:07.871Z,96799.19
2022-10-18T00:16:11.327Z,96796.19
2022-10-18T00:18:09.605Z,96791.94
2022-10-18T00:20:09.003Z,96786.41
2022-10-18T00:22:07.180Z,96790.97
2022-10-18T00:24:06.171Z,96792.47
2022-10-18T00:26:08.560Z,96785.28
2022-10-18T00:28:06.952Z,96782.91
2022-10-18T00:30:07.118Z,96783.22
2022-10-18T00:32:05.682Z,96779.00
2022-10-18T00:34:05.951Z,96771.19
2022-10-18T00:36:04.158Z,96773.63
2022-10-18T00:38:02.476Z,96775.81
2022-10-18T00:40:00.583Z,96769.41
2022-10-18T00:42:00.184Z,96766.56
2022-10-18T00:44:01.659Z,96765.13
2022-10-18T00:46:00.077Z,96766.72
2022-10-18T00:48:01.155Z,96760.06
2022-10-18T00:50:04.681Z,96761.72
2022-10-18T00:52:07.738Z,96752.56
2022-10-18T00:54:06.197Z,96760.56
2022-10-18T00:56:04.526Z,96756.44
2022-10-18T00:58:05.196Z,96761.84
2022-10-18T01:00:07.564Z,96763.75
2022-10-18T01:02:06.934Z,96754.88
2022-10-18T01:04:05.381Z,96756.19
2022-10-18T01:06:03.737Z,96751.63
2022-10-18T01:08:32.436Z,96759.28
2022-10-18T01:10:39.129Z,96757.78
2022-10-18T01:12:54.990Z,96754.00
2022-10-18T01:15:01.512Z,96742.63
2022-10-18T01:17:03.198Z,96742.34
2022-10-18T01:19:05.021Z,96745.59
2022-10-18T01:21:12.254Z,96745.78
2022-10-18T01:23:18.918Z,96740.06
2022-10-18T01:25:28.272Z,96749.84
2022-10-18T01:27:39.906Z,96746.13
2022-10-18T01:29:49.580Z,96741.72
2022-10-18T01:31:55.284Z,96745.59
2022-10-18T01:36:07.004Z,96738.84
2022-10-18T01:38:11.664Z,96734.94
2022-10-18T01:40:10.438Z,96734.66
2022-10-18T01:42:13.491Z,96737.13
2022-10-18T01:44:17.037Z,96734.56
2022-10-18T01:46:20.360Z,96734.66
2022-10-18T01:48:20.894Z,96737.03
2022-10-18T01:50:29.439Z,96727.00
2022-10-18T01:52:27.853Z,96732.69
2022-10-18T01:54:32.142Z,96730.31
2022-10-18T01:56:43.021Z,96733.94
2022-10-18T01:58:48.746Z,96737.69
2022-10-18T02:00:56.730Z,96737.03
2022-10-18T02:03:00.814Z,96735.22
2022-10-18T02:05:07.600Z,96734.63
2022-10-18T02:07:15.382Z,96729.34
2022-10-18T02:09:19.794Z,96725.03
2022-10-18T02:11:18.731Z,96726.09
2022-10-18T02:13:21.927Z,96726.84
2022-10-18T02:15:27.572Z,96722.78
2022-10-18T02:17:28.036Z,96717.88
2022-10-18T02:19:29.864Z,96722.84
2022-10-18T02:21:30.690Z,96726.25
2022-10-18T02:23:29.165Z,96723.63
2022-10-18T02:25:31.660Z,96708.78
2022-10-18T02:27:30.400Z,96724.50
2022-10-18T02:29:29.209Z,96725.69
2022-10-18T02:31:32.192Z,96721.88
2022-10-18T02:33:35.583Z,96722.94
2022-10-18T02:35:37.908Z,96720.66
2022-10-18T02:37:40.050Z,96722.69
2022-10-18T02:39:41.667Z,96716.50
2022-10-18T02:41:40.048Z,96724.16
2022-10-18T02:43:38.283Z,96721.66
2022-10-18T02:45:36.661Z,96717.34
2022-10-18T02:47:35.113Z,96720.75
2022-10-18T02:49:33.552Z,96718.25
2022-10-18T02:51:31.936Z,96729.13
2022-10-18T02:53:31.519Z,96727.22
2022-10-18T02:57:33.092Z,96722.84
2022-10-18T02:59:31.337Z,96730.56
2022-10-18T03:01:29.620Z,96731.56
2022-10-18T03:03:27.996Z,96724.28
2022-10-18T03:05:26.553Z,96725.53
2022-10-18T03:07:24.916Z,96720.34
2022-10-18T03:09:24.580Z,96725.00
2022-10-18T03:11:22.857Z,96726.88
2022-10-18T03:13:21.485Z,96731.97
2022-10-18T03:15:19.790Z,96724.81
2022-10-18T03:17:17.955Z,96720.75
2022-10-18T03:19:16.478Z,96725.06
2022-10-18T03:21:14.793Z,96720.69
2022-10-18T03:23:12.879Z,96723.50
2022-10-18T03:25:12.561Z,96715.50
2022-10-18T03:27:10.753Z,96725.19
2022-10-18T03:29:08.901Z,96727.88
2022-10-18T03:31:07.327Z,96719.34
2022-10-18T03:33:05.395Z,96725.50
2022-10-18T03:35:03.644Z,96725.63
2022-10-18T03:37:04.733Z,96727.44
2022-10-18T03:39:03.695Z,96722.84
2022-10-18T03:41:03.417Z,96729.19
2022-10-18T03:43:01.770Z,96724.16
2022-10-18T03:45:00.037Z,96726.97
2022-10-18T03:46:58.395Z,96721.66
2022-10-18T03:48:56.510Z,96732.44
2022-10-18T03:50:54.927Z,96733.56
2022-10-18T03:52:54.269Z,96731.84
2022-10-18T03:54:52.602Z,96737.94
2022-10-18T03:56:52.430Z,96737.84
2022-10-18T03:58:50.694Z,96744.00
2022-10-18T04:00:51.193Z,96741.56
2022-10-18T04:02:52.080Z,96736.47
2022-10-18T04:04:53.634Z,96739.13
2022-10-18T04:06:51.973Z,96742.50
2022-10-18T04:08:50.246Z,96735.53
2022-10-18T04:10:49.403Z,96734.03
2022-10-18T04:12:49.359Z,96741.28
2022-10-18T04:14:47.551Z,96738.72
2022-10-18T04:16:45.750Z,96731.59
2022-10-18T04:18:44.121Z,96735.78
2022-10-18T04:20:42.300Z,96737.66
2022-10-18T04:22:40.630Z,96741.38
2022-10-18T04:24:38.995Z,96736.16
2022-10-18T04:26:37.242Z,96737.66
2022-10-18T04:28:40.452Z,96733.84
2022-10-18T04:30:38.773Z,96733.66
2022-10-18T04:32:37.349Z,96737.16
2022-10-18T04:34:35.788Z,96730.97
2022-10-18T04:36:33.952Z,96731.84
2022-10-18T04:38:32.478Z,96729.13
2022-10-18T04:40:30.879Z,96731.59
2022-10-18T04:42:29.149Z,96722.44
2022-10-18T04:44:28.651Z,96723.66
2022-10-18T04:46:27.097Z,96725.59
2022-10-18T04:48:25.281Z,96730.06
2022-10-18T04:50:23.508Z,96725.03
2022-10-18T04:52:22.901Z,96726.91
2022-10-18T04:54:22.867Z,96731.91
2022-10-18T04:56:23.905Z,96725.03
2022-10-18T04:58:22.128Z,96714.44
2022-10-18T05:00:21.826Z,96721.28
2022-10-18T05:02:20.118Z,96710.00
2022-10-18T05:04:18.317Z,96711.47
2022-10-18T05:06:16.668Z,96709.16
2022-10-18T05:08:14.919Z,96711.00
2022-10-18T05:10:13.172Z,96707.09
2022-10-18T05:12:11.523Z,96706.09
2022-10-18T05:14:10.273Z,96711.38
2022-10-18T05:16:10.900Z,96701.97
2022-10-18T05:18:09.203Z,96705.53
2022-10-18T05:20:08.153Z,96720.94
2022-10-18T05:22:09.385Z,96705.66
2022-10-18T05:24:08.218Z,96708.59
2022-10-18T05:26:08.012Z,96716.94
2022-10-18T05:28:10.790Z,96714.66
2022-10-18T05:30:20.831Z,96710.31
2022-10-18T05:32:20.375Z,96716.69
2022-10-18T05:34:20.725Z,96719.78
2022-10-18T05:36:18.909Z,96715.22
2022-10-18T05:38:17.206Z,96716.09
2022-10-18T05:40:15.954Z,96710.28
2022-10-18T05:42:14.199Z,96717.03
2022-10-18T05:44:12.632Z,96715.84
2022-10-18T05:46:15.543Z,96716.31
2022-10-18T05:48:18.529Z,96713.09
2022-10-18T05:50:16.966Z,96719.59
2022-10-18T05:52:18.344Z,96720.09
2022-10-18T05:54:17.136Z,96711.16
2022-10-18T05:56:15.421Z,96720.88
2022-10-18T05:58:13.667Z,96709.06
2022-10-18T06:00:13.590Z,96705.97
2022-10-18T06:02:13.607Z,96709.63
2022-10-18T06:04:17.902Z,96710.75
2022-10-18T06:06:16.983Z,96710.22
2022-10-18T06:08:17.512Z,96715.84
2022-10-18T06:10:15.815Z,96711.41
2022-10-18T06:12:14.060Z,96712.69
2022-10-18T06:14:12.447Z,96704.13
2022-10-18T06:16:11.680Z,96711.59
2022-10-18T06:18:09.871Z,96713.56
2022-10-18T06:20:10.506Z,96710.53
2022-10-18T06:22:08.834Z,96705.06
2022-10-18T06:24:07.689Z,96705.63
2022-10-18T06:26:07.700Z,96704.16
2022-10-18T06:28:07.886Z,96705.59
2022-10-18T06:32:09.858Z,96700.91
2022-10-18T06:34:08.000Z,96703.53
2022-10-18T06:36:09.518Z,96704.31
2022-10-18T06:38:10.763Z,96706.13
2022-10-18T06:40:10.191Z,96709.03
2022-10-18T06:42:08.720Z,96703.25
2022-10-18T06:44:13.775Z,96702.78
2022-10-18T06:46:12.195Z,96703.75
2022-10-18T06:48:10.577Z,96700.16
2022-10-18T06:50:09.805Z,96696.09
2022-10-18T06:52:09.443Z,96697.66
2022-10-18T06:54:17.324Z,96704.66
2022-10-18T06:56:15.986Z,96705.78
2022-10-18T06:58:14.386Z,96707.31
2022-10-18T07:00:14.071Z,96709.91
2022-10-18T07:02:17.455Z,96704.34
2022-10-18T07:04:15.785Z,96707.19
2022-10-18T07:06:16.047Z,96698.31
2022-10-18T07:08:15.552Z,96698.31
2022-10-18T07:10:13.917Z,96701.00
2022-10-18T07:12:17.732Z,96702.19
2022-10-18T07:14:16.550Z,96705.22
2022-10-18T07:16:18.659Z,96697.34
2022-10-18T07:18:17.159Z,96704.44
2022-10-18T07:20:15.628Z,96704.44
2022-10-18T07:22:14.125Z,96701.69
2022-10-18T07:24:13.846Z,96698.31
2022-10-18T07:26:16.446Z,96697.50
2022-10-18T07:28:15.102Z,96697.88
2022-10-18T07:30:13.564Z,96704.25
2022-10-18T07:32:11.830Z,96693.69
2022-10-18T07:34:13.360Z,96690.50
2022-10-18T07:36:13.359Z,96685.22
2022-10-18T07:38:11.770Z,96683.97
2022-10-18T07:40:13.108Z,96680.78
2022-10-18T07:42:11.431Z,96683.09
2022-10-18T07:44:09.853Z,96679.72
2022-10-18T07:46:08.152Z,96678.31
2022-10-18T07:48:06.646Z,96671.22
2022-10-18T07:50:05.237Z,96672.53
2022-10-18T07:52:03.706Z,96656.84
2022-10-18T07:54:02.084Z,96665.63
2022-10-18T07:56:04.731Z,96663.16
2022-10-18T07:58:05.669Z,96656.34
2022-10-18T08:00:05.126Z,96656.16
2022-10-18T08:02:10.442Z,96656.66
2022-10-18T08:04:11.648Z,96650.03
2022-10-18T08:06:16.731Z,96652.75
2022-10-18T08:08:14.846Z,96648.78
2022-10-18T08:10:13.086Z,96645.44
2022-10-18T08:12:12.928Z,96646.38
2022-10-18T08:14:11.227Z,96639.41
2022-10-18T08:16:11.474Z,96637.94
2022-10-18T08:18:09.965Z,96629.03
2022-10-18T08:20:19.305Z,96631.91
2022-10-18T08:22:28.442Z,96631.31
2022-10-18T08:24:26.760Z,96629.41
2022-10-18T08:26:25.606Z,96625.09
2022-10-18T08:28:25.253Z,96622.63
2022-10-18T08:30:23.804Z,96610.28
2022-10-18T08:32:22.132Z,96618.22
2022-10-18T08:34:20.367Z,96609.50
2022-10-18T08:36:20.768Z,96601.38
2022-10-18T08:38:20.859Z,96605.22
2022-10-18T08:40:19.152Z,96592.66
2022-10-18T08:42:37.885Z,96587.38
2022-10-18T08:44:45.450Z,96584.22
2022-10-18T08:46:46.958Z,96585.94
2022-10-18T08:48:50.092Z,96587.41
2022-10-18T08:50:49.431Z,96577.28
2022-10-18T08:52:54.742Z,96569.44
2022-10-18T08:55:00.064Z,96574.50
2022-10-18T08:57:01.834Z,96570.34
2022-10-18T08:59:00.205Z,96570.72
2022-10-18T09:01:09.426Z,96569.72
2022-10-18T09:03:31.428Z,96560.78
2022-10-18T09:05:36.249Z,96560.72
2022-10-18T09:07:55.500Z,96560.88
2022-10-18T09:10:00.050Z,96560.47
2022-10-18T09:12:10.437Z,96562.47
2022-10-18T09:14:31.659Z,96556.91
2022-10-18T09:16:38.537Z,96541.81
2022-10-18T09:18:53.075Z,96546.28
2022-10-18T09:20:54.875Z,96541.03
2022-10-18T09:22:56.476Z,96533.69
2022-10-18T09:25:05.979Z,96540.88
2022-10-18T09:27:11.509Z,96537.38
2022-10-18T09:29:29.061Z,96532.75
2022-10-18T09:31:37.739Z,96531.94
2022-10-18T09:33:44.071Z,96528.16
2022-10-18T09:35:48.994Z,96532.66
2022-10-18T09:37:48.703Z,96522.28
2022-10-18T09:39:49.496Z,96518.25
2022-10-18T09:41:52.405Z,96505.97
2022-10-18T09:43:56.917Z,96511.56
2022-10-18T09:45:57.000Z,96517.50
2022-10-18T09:48:05.157Z,96501.22
2022-10-18T09:50:14.731Z,96500.97
2022-10-18T09:52:20.115Z,96499.44
2022-10-18T09:54:27.574Z,96509.53
2022-10-18T09:56:31.388Z,96508.84
2022-10-18T09:58:31.290Z,96503.09
2022-10-18T10:00:33.216Z,96501.41
2022-10-18T10:02:31.455Z,96496.41
2022-10-18T10:04:31.163Z,96484.16
2022-10-18T10:06:32.807Z,96478.00
2022-10-18T10:08:35.155Z,96468.19
2022-10-18T10:10:35.113Z,96465.63
2022-10-18T10:12:35.354Z,96465.22
2022-10-18T10:14:45.543Z,96454.97
2022-10-18T10:16:48.413Z,96463.31
2022-10-18T10:18:54.691Z,96444.38
2022-10-18T10:20:56.711Z,96435.69
2022-10-18T10:22:55.168Z,96439.47
2022-10-18T10:24:55.834Z,96439.00
2022-10-18T10:27:01.448Z,96433.94
2022-10-18T10:28:59.928Z,96429.44
2022-10-18T10:31:19.054Z,96417.88
2022-10-18T10:33:37.485Z,96415.09
2022-10-18T10:35:54.004Z,96412.19
2022-10-18T10:37:57.772Z,96410.25
2022-10-18T10:40:21.270Z,96404.94
2022-10-18T10:42:22.327Z,96402.03
2022-10-18T10:44:21.954Z,96396.16
2022-10-18T10:46:26.978Z,96393.00
2022-10-18T10:48:33.004Z,96392.72
2022-10-18T10:50:31.763Z,96389.84
2022-10-18T10:52:31.751Z,96383.22
2022-10-18T10:54:35.862Z,96382.50
2022-10-18T10:56:37.109Z,96387.19
2022-10-18T10:58:38.806Z,96374.16
2022-10-18T11:00:42.848Z,96369.63
2022-10-18T11:02:42.583Z,96372.13
2022-10-18T11:04:45.362Z,96376.31
2022-10-18T11:06:59.993Z,96367.34
2022-10-18T11:09:00.051Z,96367.44
2022-10-18T11:11:08.552Z,96366.22
2022-10-18T11:13:23.403Z,96361.16
2022-10-18T11:15:27.437Z,96352.97
2022-10-18T11:17:34.035Z,96358.63
2022-10-18T11:19:40.429Z,96344.97
2022-10-18T11:21:39.493Z,96340.22
2022-10-18T11:23:39.552Z,96339.44
2022-10-18T11:26:02.058Z,96339.16
2022-10-18T11:28:09.587Z,96324.84
2022-10-18T11:30:36.580Z,96326.19
2022-10-18T11:32:40.543Z,96317.31
2022-10-18T11:34:50.403Z,96316.47
2022-10-18T11:37:26.476Z,96307.50
2022-10-18T11:39:31.965Z,96304.47
2022-10-18T11:41:39.937Z,96306.31
2022-10-18T11:44:08.728Z,96302.81
2022-10-18T11:46:12.074Z,96290.16
2022-10-18T11:48:24.763Z,96281.94
2022-10-18T11:50:31.778Z,96281.31
2022-10-18T11:52:39.098Z,96284.81
2022-10-18T11:54:50.090Z,96279.94
2022-10-18T11:56:56.703Z,96279.53
2022-10-18T11:59:21.773Z,96278.06
2022-10-18T12:01:26.241Z,96268.00
2022-10-18T12:03:36.301Z,96274.03
2022-10-18T12:05:37.151Z,96266.53
2022-10-18T12:07:43.363Z,96254.03
2022-10-18T12:09:44.550Z,96242.44
2022-10-18T12:11:49.385Z,96241.44
2022-10-18T12:13:52.355Z,96240.41
2022-10-18T12:15:53.674Z,96243.44
2022-10-18T12:17:56.058Z,96239.13
2022-10-18T12:19:57.514Z,96229.91
2022-10-18T12:21:57.714Z,96228.91
2022-10-18T12:23:59.588Z,96231.91
2022-10-18T12:26:03.787Z,96223.06
2022-10-18T12:28:09.235Z,96213.22
2022-10-18T12:30:19.590Z,96217.91
2022-10-18T12:32:23.507Z,96214.91
2022-10-18T12:34:32.947Z,96209.22
2022-10-18T12:37:07.677Z,96216.56
2022-10-18T12:39:12.109Z,96212.75
2022-10-18T12:41:20.400Z,96206.09
2022-10-18T12:43:22.698Z,96199.41
2022-10-18T12:45:28.795Z,96196.56
2022-10-18T12:47:30.723Z,96196.88
2022-10-18T12:49:31.305Z,96191.41
2022-10-18T12:51:29.993Z,96192.38
2022-10-18T12:53:29.317Z,96185.06
2022-10-18T12:55:33.074Z,96190.72
2022-10-18T12:58:03.969Z,96187.72
2022-10-18T13:00:02.909Z,96180.03
2022-10-18T13:02:27.929Z,96182.38
2022-10-18T13:04:38.341Z,96188.19
2022-10-18T13:07:19.876Z,96188.19
2022-10-18T13:09:22.529Z,96182.00
2022-10-18T13:11:37.013Z,96181.03
2022-10-18T13:13:44.025Z,96172.84
2022-10-18T13:15:47.279Z,96167.69
2022-10-18T13:17:52.738Z,96162.38
2022-10-18T13:20:23.908Z,96157.84
2022-10-18T13:22:32.493Z,96163.69
2022-10-18T13:24:36.721Z,96154.34
2022-10-18T13:26:39.419Z,96149.50
2022-10-18T13:28:46.946Z,96156.50
2022-10-18T13:30:55.042Z,96158.50
2022-10-18T13:32:59.725Z,96154.69
2022-10-18T13:34:59.558Z,96147.00
2022-10-18T13:37:00.509Z,96147.66
2022-10-18T13:39:04.371Z,96145.97
2022-10-18T13:41:04.651Z,96150.13
2022-10-18T13:43:52.564Z,96135.28
2022-10-18T13:45:59.827Z,96131.44
2022-10-18T13:47:58.044Z,96127.28
2022-10-18T13:50:19.068Z,96135.09
2022-10-18T13:52:27.140Z,96128.63
2022-10-18T13:54:55.372Z,96128.47
2022-10-18T13:57:14.111Z,96123.75
2022-10-18T13:59:33.866Z,96118.59
2022-10-18T14:01:42.464Z,96124.94
2022-10-18T14:04:15.934Z,96125.91
2022-10-18T14:06:19.101Z,96123.72
2022-10-18T14:08:21.705Z,96127.22
2022-10-18T14:10:43.290Z,96119.22
2022-10-18T14:12:46.020Z,96115.06
2022-10-18T14:14:47.341Z,96107.06
2022-10-18T14:16:49.514Z,96112.56
2022-10-18T14:18:52.722Z,96115.22
2022-10-18T14:21:12.664Z,96117.06
2022-10-18T14:23:17.958Z,96113.88
2022-10-18T14:25:23.037Z,96116.22
2022-10-18T14:27:22.799Z,96116.34
2022-10-18T14:29:21.526Z,96102.72
2022-10-18T14:31:21.443Z,96102.88
2022-10-18T14:33:26.959Z,96102.88
2022-10-18T14:35:32.447Z,96103.69
2022-10-18T14:37:35.997Z,96104.34
2022-10-18T14:39:39.981Z,96097.28
2022-10-18T14:41:48.473Z,96106.13
2022-10-18T14:43:48.310Z,96100.66
2022-10-18T14:45:46.869Z,96097.78
2022-10-18T14:47:47.138Z,96104.94
2022-10-18T14:49:45.508Z,96098.75
2022-10-18T14:51:46.151Z,96097.25
2022-10-18T14:53:44.387Z,96091.75
2022-10-18T14:55:44.527Z,96094.91
2022-10-18T14:57:43.022Z,96086.72
2022-10-18T14:59:46.086Z,96087.22
2022-10-18T15:01:56.097Z,96083.00
2022-10-18T15:03:58.858Z,96077.66
2022-10-18T15:05:59.913Z,96082.91
2022-10-18T15:08:00.207Z,96078.88
2022-10-18T15:10:00.661Z,96078.75
2022-10-18T15:12:01.181Z,96078.88
2022-10-18T15:14:03.077Z,96079.06
2022-10-18T15:16:01.682Z,96079.84
2022-10-18T15:18:00.886Z,96083.97
2022-10-18T15:20:05.146Z,96084.09
2022-10-18T15:24:33.485Z,96079.06
2022-10-18T15:26:31.955Z,96076.50
2022-10-18T15:28:36.055Z,96073.09
2022-10-18T15:30:38.590Z,96071.66
2022-10-18T15:32:37.826Z,96066.16
2022-10-18T15:34:36.882Z,96074.38
2022-10-18T15:36:36.026Z,96072.59
2022-10-18T15:38:36.698Z,96080.44
2022-10-18T15:40:39.853Z,96076.22
2022-10-18T15:42:39.567Z,96074.00
2022-10-18T15:44:53.030Z,96078.41
2022-10-18T15:46:53.252Z,96074.94
2022-10-18T15:48:51.483Z,96082.25
2022-10-18T15:50:52.058Z,96076.88
2022-10-18T15:52:50.424Z,96089.06
2022-10-18T15:56:47.462Z,96079.19
2022-10-18T15:58:47.678Z,96076.31
2022-10-18T16:00:48.831Z,96087.91
2022-10-18T16:02:47.665Z,96088.19
2022-10-18T16:04:48.075Z,96087.06
2022-10-18T16:06:46.222Z,96092.94
2022-10-18T16:08:45.931Z,96093.75
2022-10-18T16:10:44.133Z,96097.09
2022-10-18T16:12:42.564Z,96098.50
2022-10-18T16:14:40.849Z,96097.81
2022-10-18T16:16:41.577Z,96097.41
2022-10-18T16:18:39.949Z,96090.50
2022-10-18T16:20:38.487Z,96096.78
2022-10-18T16:22:37.169Z,96095.81
2022-10-18T16:24:35.704Z,96098.00
2022-10-18T16:26:34.294Z,96102.75
2022-10-18T16:28:32.976Z,96096.72
2022-10-18T16:30:35.327Z,96099.78
2022-10-18T16:32:35.189Z,96099.91
2022-10-18T16:34:33.521Z,96105.78
2022-10-18T16:36:33.592Z,96101.19
2022-10-18T16:38:35.256Z,96100.63
2022-10-18T16:40:35.431Z,96101.97
2022-10-18T16:42:35.848Z,96101.41
2022-10-18T16:44:33.977Z,96113.25
2022-10-18T16:46:34.149Z,96105.25
2022-10-18T16:48:34.168Z,96112.34
2022-10-18T16:50:35.334Z,96108.81
2022-10-18T16:52:33.938Z,96111.16
2022-10-18T16:54:32.420Z,96111.00
2022-10-18T16:56:32.707Z,96110.59
2022-10-18T16:58:33.986Z,96111.00
2022-10-18T17:00:32.640Z,96115.69
2022-10-18T17:02:31.461Z,96116.47
2022-10-18T17:04:31.413Z,96112.88
2022-10-18T17:06:31.823Z,96108.78
2022-10-18T17:08:30.861Z,96110.03
2022-10-18T17:10:29.190Z,96116.50
2022-10-18T17:12:27.619Z,96104.78
2022-10-18T17:14:25.977Z,96108.97
2022-10-18T17:18:27.688Z,96104.38
2022-10-18T17:20:28.308Z,96107.69
2022-10-18T17:22:26.720Z,96102.22
2022-10-18T17:24:24.949Z,96106.16
2022-10-18T17:26:29.277Z,96101.28
2022-10-18T17:28:37.462Z,96108.31
2022-10-18T17:30:36.223Z,96102.03
2022-10-18T17:32:34.581Z,96108.56
2022-10-18T17:34:32.841Z,96103.31
2022-10-18T17:36:37.880Z,96105.94
2022-10-18T17:38:36.272Z,96106.78
2022-10-18T17:40:35.811Z,96106.09
2022-10-18T17:42:35.346Z,96111.22
2022-10-18T17:44:33.436Z,96112.66
2022-10-18T17:46:31.969Z,96104.53
2022-10-18T17:48:30.265Z,96110.41
2022-10-18T17:50:29.322Z,96108.59
2022-10-18T17:52:29.000Z,96103.78
2022-10-18T17:54:27.274Z,96108.66
2022-10-18T17:56:27.347Z,96107.59
2022-10-18T17:58:25.841Z,96101.09
2022-10-18T18:00:24.664Z,96109.38
2022-10-18T18:02:23.028Z,96109.78
2022-10-18T18:04:21.410Z,96115.94
2022-10-18T18:06:22.100Z,96113.19
2022-10-18T18:08:21.895Z,96113.13
2022-10-18T18:10:20.158Z,96113.56
2022-10-18T18:12:18.241Z,96117.78
2022-10-18T18:14:17.240Z,96108.19
2022-10-18T18:16:17.670Z,96116.03
2022-10-18T18:18:16.081Z,96110.47
2022-10-18T18:20:14.229Z,96106.31
2022-10-18T18:22:12.579Z,96105.25
2022-10-18T18:24:14.005Z,96108.75
2022-10-18T18:26:12.621Z,96103.72
2022-10-18T18:28:10.840Z,96096.25
2022-10-18T18:30:09.593Z,96096.03
2022-10-18T18:32:11.130Z,96101.53
2022-10-18T18:34:11.021Z,96096.84
2022-10-18T18:36:10.041Z,96104.81
2022-10-18T18:38:09.236Z,96099.75
2022-10-18T18:40:10.196Z,96102.16
2022-10-18T18:42:08.324Z,96104.88
2022-10-18T18:44:07.498Z,96098.66
2022-10-18T18:46:06.413Z,96097.44
2022-10-18T18:48:04.924Z,96099.63
2022-10-18T18:50:05.877Z,96096.47
2022-10-18T18:52:04.385Z,96094.63
2022-10-18T18:54:02.554Z,96090.72
2022-10-18T18:56:07.484Z,96095.59
2022-10-18T18:58:05.874Z,96100.75
2022-10-18T19:00:06.691Z,96088.88
2022-10-18T19:02:05.252Z,96093.38
2022-10-18T19:04:04.123Z,96084.50
2022-10-18T19:06:07.282Z,96084.09
2022-10-18T19:08:06.677Z,96089.78
2022-10-18T19:10:05.662Z,96085.09
2022-10-18T19:12:07.093Z,96100.06
2022-10-18T19:14:07.111Z,96087.25
2022-10-18T19:16:17.526Z,96093.38
2022-10-18T19:18:18.306Z,96098.97
2022-10-18T19:20:20.032Z,96097.41
2022-10-18T19:22:20.404Z,96095.94
2022-10-18T19:24:19.438Z,96097.31
2022-10-18T19:26:26.364Z,96097.63
2022-10-18T19:28:26.133Z,96093.84
2022-10-18T19:30:24.676Z,96095.84
2022-10-18T19:32:22.960Z,96097.19
2022-10-18T19:34:22.494Z,96101.50
2022-10-18T19:36:20.835Z,96104.66
2022-10-18T19:38:18.992Z,96100.56
2022-10-18T19:40:17.198Z,96091.28
2022-10-18T19:42:22.608Z,96094.25
2022-10-18T19:44:30.776Z,96086.56
2022-10-18T19:46:29.119Z,96084.25
2022-10-18T19:48:27.303Z,96087.09
2022-10-18T19:50:27.939Z,96088.31
2022-10-18T19:52:26.139Z,96080.75
2022-10-18T19:54:24.724Z,96081.16
2022-10-18T19:56:25.007Z,96078.13
2022-10-18T19:58:23.342Z,96084.75
2022-10-18T20:00:22.928Z,96069.72
2022-10-18T20:02:21.123Z,96084.63
2022-10-18T20:04:19.616Z,96077.25
2022-10-18T20:06:25.156Z,96071.72
2022-10-18T20:08:23.880Z,96081.47
2022-10-18T20:10:22.004Z,96075.59
2022-10-18T20:12:20.328Z,96077.91
2022-10-18T20:14:18.598Z,96077.06
2022-10-18T20:16:24.212Z,96073.81
2022-10-18T20:18:25.333Z,96073.59
2022-10-18T20:20:23.718Z,96075.59
2022-10-18T20:22:21.944Z,96076.09
2022-10-18T20:24:20.260Z,96069.00
2022-10-18T20:26:20.835Z,96074.84
2022-10-18T20:28:19.052Z,96076.72
2022-10-18T20:30:17.449Z,96068.72
2022-10-18T20:32:17.479Z,96066.88
2022-10-18T20:34:15.771Z,96072.50
2022-10-18T20:36:16.040Z,96070.56
2022-10-18T20:38:14.177Z,96069.06
2022-10-18T20:40:13.296Z,96073.50
2022-10-18T20:42:11.700Z,96077.34
2022-10-18T20:44:14.837Z,96069.03
2022-10-18T20:46:13.378Z,96070.34
2022-10-18T20:48:12.885Z,96075.13
2022-10-18T20:50:11.313Z,96062.09
2022-10-18T20:52:09.697Z,96062.19
2022-10-18T20:54:08.889Z,96066.31
2022-10-18T20:56:09.193Z,96061.44
2022-10-18T20:58:07.883Z,96064.16
2022-10-18T21:00:10.068Z,96065.84
2022-10-18T21:02:08.635Z,96063.34
2022-10-18T21:04:10.522Z,96061.38
2022-10-18T21:06:13.364Z,96053.97
2022-10-18T21:08:11.687Z,96054.53
2022-10-18T21:10:10.278Z,96059.50
2022-10-18T21:12:08.622Z,96061.53
2022-10-18T21:14:08.280Z,96050.03
2022-10-18T21:16:07.784Z,96057.59
2022-10-18T21:18:05.976Z,96053.22
2022-10-18T21:20:07.145Z,96043.41
2022-10-18T21:22:05.397Z,96045.34
2022-10-18T21:24:07.095Z,96039.28
2022-10-18T21:26:06.786Z,96037.28
2022-10-18T21:28:04.973Z,96034.97
2022-10-18T21:30:03.328Z,96035.97
2022-10-18T21:32:02.852Z,96034.84
2022-10-18T21:34:02.408Z,96033.00
2022-10-18T21:36:03.861Z,96027.59
2022-10-18T21:38:02.223Z,96019.75
2022-10-18T21:40:00.410Z,96015.63
2022-10-18T21:41:59.195Z,96017.19
2022-10-18T21:43:57.674Z,96010.94
2022-10-18T21:46:00.235Z,96009.31
2022-10-18T21:47:58.487Z,96002.88
2022-10-18T21:49:56.792Z,96004.72
2022-10-18T21:51:56.447Z,96002.56
2022-10-18T21:53:58.268Z,95999.78
2022-10-18T21:55:59.178Z,95996.59
2022-10-18T21:57:57.540Z,96003.06
2022-10-18T21:59:55.829Z,95992.88
2022-10-18T22:01:54.094Z,95984.94
2022-10-18T22:03:54.037Z,95991.44
2022-10-18T22:05:58.938Z,95991.38
2022-10-18T22:07:58.660Z,95981.41
2022-10-18T22:09:56.910Z,95982.88
2022-10-18T22:11:55.512Z,95986.84
2022-10-18T22:13:54.225Z,95984.34
2022-10-18T22:15:52.469Z,95981.63
2022-10-18T22:17:51.284Z,95982.72
2022-10-18T22:19:49.673Z,95986.84
2022-10-18T22:21:48.582Z,95971.56
2022-10-18T22:23:50.661Z,95972.84
2022-10-18T22:25:49.344Z,95974.03
2022-10-18T22:27:49.158Z,95976.56
2022-10-18T22:29:47.554Z,95974.22
2022-10-18T22:31:47.918Z,95974.75
2022-10-18T22:33:47.100Z,95977.88
2022-10-18T22:35:50.437Z,95970.97
2022-10-18T22:37:48.512Z,95974.75
2022-10-18T22:39:48.508Z,95967.69
2022-10-18T22:41:47.503Z,95953.69
2022-10-18T22:43:48.364Z,95960.97
2022-10-18T22:45:46.632Z,95955.31
2022-10-18T22:47:45.398Z,95954.63
2022-10-18T22:49:43.741Z,95951.97
2022-10-18T22:51:42.255Z,95952.47
2022-10-18T22:53:42.079Z,95952.03
2022-10-18T22:55:41.719Z,95956.97
2022-10-18T22:57:42.523Z,95945.06
2022-10-18T22:59:43.761Z,95947.00
2022-10-18T23:01:42.131Z,95953.00
2022-10-18T23:03:41.487Z,95948.03
2022-10-18T23:05:41.340Z,95939.94
2022-10-18T23:07:49.087Z,95942.97
2022-10-18T23:09:47.557Z,95941.44
2022-10-18T23:11:50.939Z,95944.28
2022-10-18T23:13:51.964Z,95932.66
2022-10-18T23:15:51.017Z,95941.16
2022-10-18T23:17:50.131Z,95935.28
2022-10-18T23:19:48.434Z,95935.44
2022-10-18T23:21:46.780Z,95933.34
2022-10-18T23:23:45.316Z,95930.34
2022-10-18T23:25:42.590Z,95936.06
2022-10-18T23:27:45.094Z,95927.22
2022-10-18T23:29:43.393Z,95935.06
2022-10-18T23:31:41.661Z,95926.47
2022-10-18T23:33:40.094Z,95926.97
2022-10-18T23:35:38.484Z,95920.06
2022-10-18T23:37:39.846Z,95925.94
2022-10-18T23:39:37.955Z,95920.81
2022-10-18T23:41:36.668Z,95914.75
2022-10-18T23:43:37.140Z,95911.16
2022-10-18T23:45:35.344Z,95913.53
2022-10-18T23:47:33.989Z,95907.81
2022-10-18T23:49:32.677Z,95903.84
2022-10-18T23:51:32.789Z,95904.97
2022-10-18T23:53:31.886Z,95904.13
2022-10-18T23:55:30.122Z,95906.97
2022-10-18T23:57:28.395Z,95902.34
2022-10-18T23:59:28.643Z,95899.97
